Time;durP1;ratioP1;P1;durP2;ratioP2;P2;SDS_P1;SDS_P2;PMS_P1;PMS_P2;Temp;Humidity;BMP_temperature;BMP_pressure;BME280_temperature;BME280_humidity;BME280_pressure;Samples;Min_cycle;Max_cycle;Signal;HPM_P1;HPM_P2
2022/09/19 00:01:44;;;;;;;9.15;2.65;;;12.50;79.80;;;;;;5118647;28;20035;-65
2022/09/19 00:04:12;;;;;;;8.57;1.95;;;12.50;79.70;;;;;;5117931;27;20106;-65
2022/09/19 00:06:40;;;;;;;6.55;1.90;;;12.50;79.70;;;;;;5117769;28;20040;-65
2022/09/19 00:09:09;;;;;;;8.82;1.73;;;12.50;79.70;;;;;;5117973;28;20035;-65
2022/09/19 00:11:38;;;;;;;10.63;1.77;;;12.50;79.60;;;;;;5118492;28;20035;-65
2022/09/19 00:14:04;;;;;;;5.20;1.50;;;12.50;79.70;;;;;;5116693;27;20051;-65
2022/09/19 00:16:32;;;;;;;7.78;1.80;;;12.50;79.70;;;;;;5118073;28;20032;-65
2022/09/19 00:19:00;;;;;;;9.00;2.20;;;12.50;79.60;;;;;;5116534;28;20020;-65
2022/09/19 00:21:31;;;;;;;8.70;1.98;;;12.50;79.60;;;;;;5118379;28;20031;-67
2022/09/19 00:26:45;;;;;;;11.65;2.75;;;12.50;79.70;;;;;;5116828;27;20047;-66
2022/09/19 00:29:11;;;;;;;10.00;1.95;;;12.50;79.60;;;;;;5118063;28;20042;-65
2022/09/19 00:31:37;;;;;;;10.82;2.15;;;12.50;79.50;;;;;;5118029;27;20101;-65
2022/09/19 00:34:06;;;;;;;9.57;1.88;;;12.50;79.50;;;;;;5099507;27;20024;-65
2022/09/19 00:36:36;;;;;;;9.13;2.30;;;12.60;79.50;;;;;;5117478;28;20421;-65
2022/09/19 00:39:03;;;;;;;10.90;2.33;;;12.60;79.50;;;;;;5132985;27;20024;-64
2022/09/19 00:41:29;;;;;;;9.60;1.77;;;12.60;79.50;;;;;;5133640;27;20448;-65
2022/09/19 00:43:57;;;;;;;10.75;1.98;;;12.60;79.50;;;;;;5115928;28;20096;-65
2022/09/19 00:46:25;;;;;;;10.02;2.00;;;12.60;79.50;;;;;;5116503;28;20044;-65
2022/09/19 00:48:56;;;;;;;8.18;1.80;;;12.50;79.40;;;;;;5117624;28;20448;-65
2022/09/19 00:51:38;;;;;;;8.30;1.63;;;12.50;79.50;;;;;;5116103;28;20383;-65
2022/09/19 00:54:07;;;;;;;;;;;12.60;79.50;;;;;;5115506;27;20031;-65
2022/09/19 00:56:34;;;;;;;6.40;1.52;;;12.50;79.40;;;;;;5116724;27;19980;-65
2022/09/19 00:59:01;;;;;;;9.48;2.20;;;12.50;79.30;;;;;;5117785;28;20413;-65
2022/09/19 01:01:27;;;;;;;11.68;2.13;;;12.60;79.30;;;;;;5117419;28;20023;-65
2022/09/19 01:03:54;;;;;;;10.65;2.10;;;12.50;79.30;;;;;;5098749;28;20024;-65
2022/09/19 01:06:48;;;;;;;8.95;2.15;;;12.60;79.30;;;;;;5117041;28;20448;-65
2022/09/19 01:09:47;;;;;;;8.90;1.83;;;12.60;79.20;;;;;;5116302;28;20028;-65
2022/09/19 01:12:19;;;;;;;9.50;1.90;;;12.60;79.30;;;;;;5105536;28;20183;-65
2022/09/19 01:15:04;;;;;;;9.60;1.75;;;12.60;79.30;;;;;;5132537;27;20039;-65
2022/09/19 01:17:47;;;;;;;9.88;2.40;;;12.60;79.30;;;;;;5133584;27;20019;-65
2022/09/19 01:20:45;;;;;;;7.65;2.15;;;12.60;79.30;;;;;;5115894;27;20020;-65
2022/09/19 01:23:17;;;;;;;10.55;1.80;;;12.60;79.30;;;;;;5116684;28;20038;-65
2022/09/19 01:26:19;;;;;;;8.95;1.60;;;12.50;79.40;;;;;;5132183;27;20448;-65
2022/09/19 01:29:07;;;;;;;9.45;2.50;;;12.50;79.40;;;;;;5116231;28;20039;-65
2022/09/19 01:31:39;;;;;;;7.47;1.85;;;12.50;79.50;;;;;;5116283;27;20106;-65
2022/09/19 01:34:25;;;;;;;7.15;1.42;;;12.50;79.50;;;;;;5101882;28;20027;-65
2022/09/19 01:37:00;;;;;;;7.63;1.95;;;12.50;79.50;;;;;;5115638;27;20110;-65
2022/09/19 01:39:29;;;;;;;10.43;2.40;;;12.60;79.60;;;;;;5116248;27;20026;-65
2022/09/19 01:42:01;;;;;;;9.82;2.25;;;12.50;79.60;;;;;;5120383;27;20035;-65
2022/09/19 01:44:29;;;;;;;8.43;2.17;;;12.60;79.70;;;;;;5131789;27;20097;-65
2022/09/19 01:47:04;;;;;;;9.27;2.08;;;12.60;79.70;;;;;;5115364;28;20031;-65
2022/09/19 01:49:35;;;;;;;7.35;1.70;;;12.60;79.70;;;;;;5132734;27;20024;-65
2022/09/19 01:52:30;;;;;;;6.20;1.90;;;12.60;79.80;;;;;;5131682;27;20092;-65
2022/09/19 01:55:19;;;;;;;10.27;2.05;;;12.60;79.70;;;;;;5114789;28;20768;-65
2022/09/19 01:58:07;;;;;;;7.05;1.83;;;12.50;79.70;;;;;;5114907;28;20012;-66
2022/09/19 02:00:38;;;;;;;7.38;1.77;;;12.50;79.70;;;;;;5098792;28;20450;-65
2022/09/19 02:03:36;;;;;;;9.60;1.92;;;12.50;79.70;;;;;;5118197;27;20015;-65
2022/09/19 02:06:19;;;;;;;11.13;2.15;;;12.50;79.70;;;;;;5130901;27;20026;-64
2022/09/19 02:08:44;;;;;;;;;;;12.50;79.70;;;;;;5114241;28;20027;-65
2022/09/19 02:11:18;;;;;;;7.78;1.80;;;12.50;79.70;;;;;;5114884;28;19915;-65
2022/09/19 02:13:49;;;;;;;8.43;1.88;;;12.50;79.70;;;;;;5115310;28;20476;-65
2022/09/19 02:16:17;;;;;;;9.60;2.37;;;12.40;79.70;;;;;;5115896;28;20119;-64
2022/09/19 02:19:12;;;;;;;8.55;1.98;;;12.50;79.80;;;;;;5132416;27;20284;-65
2022/09/19 02:21:54;;;;;;;12.82;1.85;;;12.50;79.70;;;;;;5132167;27;20026;-65
2022/09/19 02:24:30;;;;;;;12.30;2.15;;;12.50;79.80;;;;;;5113816;27;20593;-65
2022/09/19 02:27:07;;;;;;;8.18;2.08;;;12.50;79.80;;;;;;5108584;28;20059;-65
2022/09/19 02:29:37;;;;;;;8.55;1.85;;;12.50;79.70;;;;;;5114003;28;20371;-64
2022/09/19 02:32:07;;;;;;;11.50;2.33;;;12.50;79.80;;;;;;5101410;28;20119;-65
2022/09/19 02:34:34;;;;;;;8.25;2.30;;;12.40;79.70;;;;;;5130934;27;20382;-65
2022/09/19 02:37:26;;;;;;;9.00;1.40;;;12.50;79.70;;;;;;5114443;27;20536;-65
2022/09/19 02:40:17;;;;;;;8.57;1.88;;;12.50;79.70;;;;;;5125789;27;20023;-65
2022/09/19 02:42:48;;;;;;;9.20;1.80;;;12.40;79.70;;;;;;5131302;27;20442;-65
2022/09/19 02:45:43;;;;;;;7.45;1.73;;;12.40;79.70;;;;;;5114141;27;20032;-65
2022/09/19 02:48:30;;;;;;;7.82;1.48;;;12.40;79.70;;;;;;5113141;28;20048;-65
2022/09/19 02:51:24;;;;;;;9.07;2.08;;;12.40;79.70;;;;;;5131118;27;20023;-65
2022/09/19 02:53:58;;;;;;;10.40;2.22;;;12.40;79.70;;;;;;5128650;27;20046;-65
2022/09/19 02:56:33;;;;;;;8.25;1.83;;;12.40;79.70;;;;;;5097109;28;20024;-64
2022/09/19 02:59:06;;;;;;;11.18;2.03;;;12.40;79.70;;;;;;5113132;27;20050;-65
2022/09/19 03:01:46;;;;;;;9.15;1.75;;;12.40;79.60;;;;;;5134421;27;20030;-65
2022/09/19 03:04:18;;;;;;;9.30;1.98;;;12.40;79.70;;;;;;5138290;27;20367;-64
2022/09/19 03:06:53;;;;;;;;;;;12.40;79.70;;;;;;5127922;27;20456;-65
2022/09/19 03:09:24;;;;;;;4.40;1.23;;;12.40;79.70;;;;;;5111199;28;19953;-65
2022/09/19 03:12:04;;;;;;;8.00;1.75;;;12.40;79.70;;;;;;5131107;27;20118;-64
2022/09/19 03:14:32;;;;;;;5.57;1.63;;;12.40;79.70;;;;;;5130184;27;20051;-65
2022/09/19 03:17:00;;;;;;;7.43;1.52;;;12.40;79.80;;;;;;5112390;28;20028;-65
2022/09/19 03:19:27;;;;;;;6.85;1.60;;;12.40;79.80;;;;;;5117952;27;20115;-65
2022/09/19 03:21:54;;;;;;;10.30;1.80;;;12.40;79.80;;;;;;5104734;28;20024;-64
2022/09/19 03:24:21;;;;;;;11.52;2.03;;;12.40;79.80;;;;;;5115765;27;20043;-65
2022/09/19 03:26:48;;;;;;;7.40;2.22;;;12.50;79.90;;;;;;5102499;28;20020;-64
2022/09/19 03:29:15;;;;;;;6.85;1.40;;;12.50;79.90;;;;;;5093299;28;20528;-64
2022/09/19 03:31:50;;;;;;;6.25;1.58;;;12.50;80.00;;;;;;5114457;28;20439;-64
2022/09/19 03:34:17;;;;;;;11.38;2.17;;;12.40;80.00;;;;;;5108587;28;20188;-65
2022/09/19 03:36:43;;;;;;;7.07;1.85;;;12.50;80.10;;;;;;5102681;28;20020;-65
2022/09/19 03:39:10;;;;;;;8.48;1.50;;;12.50;80.20;;;;;;5110393;28;20048;-65
2022/09/19 03:41:40;;;;;;;6.80;1.42;;;12.50;80.20;;;;;;5111056;28;20023;-65
2022/09/19 03:44:07;;;;;;;7.63;1.65;;;12.50;80.20;;;;;;5094466;28;20189;-64
2022/09/19 03:46:35;;;;;;;7.30;1.77;;;12.50;80.30;;;;;;5111053;28;20032;-65
2022/09/19 03:49:03;;;;;;;11.32;1.83;;;12.50;80.20;;;;;;5087796;28;20166;-65
2022/09/19 03:51:31;;;;;;;7.53;1.88;;;12.50;80.20;;;;;;5108102;28;20368;-65
2022/09/19 03:53:59;;;;;;;9.82;1.80;;;12.50;80.20;;;;;;5120409;27;20101;-65
2022/09/19 03:56:30;;;;;;;12.98;2.03;;;12.50;80.20;;;;;;5097531;28;20020;-65
2022/09/19 03:58:56;;;;;;;9.50;1.55;;;12.50;80.20;;;;;;5117600;27;20020;-65
2022/09/19 04:01:24;;;;;;;9.07;1.50;;;12.50;80.10;;;;;;5108605;28;20093;-65
2022/09/19 04:03:52;;;;;;;10.30;2.22;;;12.50;80.20;;;;;;5116991;27;20103;-65
2022/09/19 04:06:19;;;;;;;7.75;1.35;;;12.50;80.20;;;;;;5117461;28;20027;-65
2022/09/19 04:08:45;;;;;;;17.67;2.22;;;12.50;80.20;;;;;;5112395;28;20494;-65
2022/09/19 04:11:12;;;;;;;5.05;1.20;;;12.50;80.20;;;;;;5113644;28;20038;-65
2022/09/19 04:13:38;;;;;;;13.93;2.47;;;12.50;80.20;;;;;;5112898;28;20079;-65
2022/09/19 04:16:11;;;;;;;6.35;1.25;;;12.50;80.30;;;;;;5112964;28;20471;-65
2022/09/19 04:18:41;;;;;;;14.40;1.63;;;12.50;80.20;;;;;;5095291;28;20036;-65
2022/09/19 04:21:08;;;;;;;9.10;1.80;;;12.60;80.30;;;;;;5121459;28;20027;-65
2022/09/19 04:23:46;;;;;;;12.40;1.70;;;12.60;80.30;;;;;;5098043;28;20119;-65
2022/09/19 04:26:29;;;;;;;10.10;2.03;;;12.60;80.30;;;;;;5130485;27;20421;-65
2022/09/19 04:28:55;;;;;;;12.43;1.80;;;12.60;80.20;;;;;;5111968;28;20056;-65
2022/09/19 04:31:22;;;;;;;10.20;1.45;;;12.60;80.20;;;;;;5115410;28;20114;-64
2022/09/19 04:33:50;;;;;;;7.88;2.50;;;12.60;80.30;;;;;;5117213;28;20031;-65
2022/09/19 04:36:16;;;;;;;8.07;1.67;;;12.60;80.30;;;;;;5100402;28;20085;-64
2022/09/19 04:38:42;;;;;;;7.35;1.65;;;12.60;80.30;;;;;;5134362;27;20023;-65
2022/09/19 04:41:16;;;;;;;8.35;1.67;;;12.60;80.40;;;;;;5121002;27;20015;-65
2022/09/19 04:43:42;;;;;;;8.00;1.70;;;12.70;80.40;;;;;;5117817;27;20359;-65
2022/09/19 04:46:20;;;;;;;11.43;1.98;;;12.70;80.40;;;;;;5134497;27;20024;-65
2022/09/19 04:48:48;;;;;;;9.25;2.22;;;12.70;80.40;;;;;;5117560;28;20028;-65
2022/09/19 04:51:16;;;;;;;7.03;1.80;;;12.70;80.40;;;;;;5116322;27;20024;-64
2022/09/19 04:53:41;;;;;;;6.20;1.58;;;12.70;80.40;;;;;;5134029;27;20047;-65
2022/09/19 04:56:08;;;;;;;5.43;1.65;;;12.70;80.40;;;;;;5116826;28;20028;-65
2022/09/19 04:58:39;;;;;;;6.88;1.40;;;12.70;80.40;;;;;;5121170;27;20113;-65
2022/09/19 05:01:08;;;;;;;6.75;1.70;;;12.70;80.40;;;;;;5101130;28;20026;-65
2022/09/19 05:03:35;;;;;;;7.97;1.52;;;12.70;80.40;;;;;;5098703;28;20020;-64
2022/09/19 05:06:01;;;;;;;8.85;1.42;;;12.80;80.60;;;;;;5116275;28;20034;-64
2022/09/19 05:08:32;;;;;;;7.03;1.67;;;12.70;80.60;;;;;;5132917;27;20019;-64
2022/09/19 05:11:05;;;;;;;8.30;1.80;;;12.70;80.60;;;;;;5131563;27;20020;-64
2022/09/19 05:13:33;;;;;;;6.80;1.65;;;12.70;80.70;;;;;;5132013;27;20490;-64
2022/09/19 05:16:01;;;;;;;7.47;1.90;;;12.70;80.70;;;;;;5114600;28;20019;-64
2022/09/19 05:18:30;;;;;;;8.18;1.67;;;12.70;80.80;;;;;;5116233;28;20020;-64
2022/09/19 05:20:56;;;;;;;5.20;1.60;;;12.70;80.80;;;;;;5131274;27;20440;-64
2022/09/19 05:23:24;;;;;;;8.32;1.73;;;12.70;80.90;;;;;;5098620;28;20028;-64
2022/09/19 05:25:55;;;;;;;7.20;1.65;;;12.70;80.90;;;;;;5133065;27;20032;-64
2022/09/19 05:28:26;;;;;;;10.80;1.90;;;12.70;80.90;;;;;;5133025;27;20020;-64
2022/09/19 05:30:55;;;;;;;7.20;1.48;;;12.70;80.90;;;;;;5131100;27;20035;-64
2022/09/19 05:33:26;;;;;;;10.15;2.15;;;12.70;80.90;;;;;;5115088;28;20012;-64
2022/09/19 05:35:55;;;;;;;7.47;1.65;;;12.70;80.90;;;;;;5132958;27;20020;-66
2022/09/19 05:38:34;;;;;;;10.10;1.98;;;12.80;80.90;;;;;;5115722;28;20185;-66
2022/09/19 05:41:17;;;;;;;10.25;1.63;;;12.80;80.90;;;;;;5114753;28;20023;-64
2022/09/19 05:43:50;;;;;;;7.22;1.85;;;12.80;80.90;;;;;;5115663;28;20038;-65
2022/09/19 05:46:16;;;;;;;11.07;2.20;;;12.80;80.90;;;;;;5132417;27;20035;-64
2022/09/19 05:48:48;;;;;;;9.52;2.17;;;12.80;80.90;;;;;;5142199;27;20024;-64
2022/09/19 05:51:13;;;;;;;8.07;1.90;;;12.80;80.90;;;;;;5114722;28;20115;-66
2022/09/19 05:53:56;;;;;;;6.00;1.60;;;12.80;81.00;;;;;;5132489;27;20122;-64
2022/09/19 05:56:50;;;;;;;6.68;1.35;;;12.80;81.00;;;;;;5113850;28;20104;-64
2022/09/19 05:59:20;;;;;;;8.98;1.88;;;12.80;81.00;;;;;;5132131;27;20053;-64
2022/09/19 06:01:47;;;;;;;6.15;1.67;;;12.80;81.10;;;;;;5111531;27;20057;-64
2022/09/19 06:04:32;;;;;;;6.68;1.80;;;12.80;81.10;;;;;;5112818;27;20039;-66
2022/09/19 06:06:58;;;;;;;5.63;1.52;;;12.90;81.20;;;;;;5097091;28;20466;-64
2022/09/19 06:09:25;;;;;;;8.68;2.35;;;12.90;81.20;;;;;;5113932;27;20028;-64
2022/09/19 06:11:54;;;;;;;8.20;1.70;;;13.00;81.30;;;;;;5111392;28;20038;-64
2022/09/19 06:14:23;;;;;;;9.63;1.70;;;12.90;81.20;;;;;;5129023;27;20044;-65
2022/09/19 06:16:49;;;;;;;6.35;2.08;;;13.00;81.20;;;;;;5117522;27;20083;-64
2022/09/19 06:19:28;;;;;;;11.95;1.80;;;13.10;81.30;;;;;;5115422;28;20039;-64
2022/09/19 06:22:23;;;;;;;8.63;1.58;;;13.10;81.20;;;;;;5113604;27;20080;-65
2022/09/19 06:24:52;;;;;;;9.80;2.00;;;13.10;81.10;;;;;;5114375;28;20031;-65
2022/09/19 06:27:19;;;;;;;7.40;1.60;;;13.20;81.20;;;;;;5116828;27;20024;-65
2022/09/19 06:29:46;;;;;;;8.70;1.92;;;13.20;81.20;;;;;;5118119;27;20031;-65
2022/09/19 06:32:18;;;;;;;10.90;1.67;;;13.20;81.20;;;;;;5119032;27;20432;-65
2022/09/19 06:34:45;;;;;;;7.00;1.85;;;13.30;81.20;;;;;;5114267;28;20080;-65
2022/09/19 06:37:11;;;;;;;6.50;1.27;;;13.30;81.30;;;;;;5099030;27;20027;-65
2022/09/19 06:39:37;;;;;;;10.30;1.98;;;13.30;81.30;;;;;;5118337;27;20339;-65
2022/09/19 06:42:22;;;;;;;7.25;1.65;;;13.30;81.30;;;;;;5116470;28;20401;-65
2022/09/19 06:45:18;;;;;;;10.52;1.90;;;13.30;81.30;;;;;;5105505;27;20036;-65
2022/09/19 06:47:59;;;;;;;8.38;1.60;;;13.40;81.30;;;;;;5115752;27;20058;-65
2022/09/19 06:50:38;;;;;;;8.18;1.83;;;13.40;81.30;;;;;;5105268;27;20169;-65
2022/09/19 06:53:08;;;;;;;7.15;1.83;;;13.40;81.20;;;;;;5113461;28;20031;-65
2022/09/19 06:55:34;;;;;;;5.10;1.30;;;13.40;81.20;;;;;;5097119;28;20032;-65
2022/09/19 06:58:05;;;;;;;6.90;2.00;;;13.40;81.10;;;;;;5129981;27;20019;-65
2022/09/19 07:00:38;;;;;;;6.20;2.08;;;13.50;81.80;;;;;;5131476;27;20356;-64
2022/09/19 07:03:09;;;;;;;7.53;2.00;;;13.60;81.00;;;;;;5114671;27;20023;-65
2022/09/19 07:05:42;;;;;;;6.82;1.85;;;13.60;80.80;;;;;;5097182;28;20034;-65
2022/09/19 07:08:24;;;;;;;7.05;1.75;;;13.70;80.70;;;;;;5125055;27;20031;-65
2022/09/19 07:10:50;;;;;;;7.10;1.50;;;13.90;80.40;;;;;;5110524;28;20024;-65
2022/09/19 07:13:16;;;;;;;10.02;1.83;;;14.00;80.20;;;;;;5137433;27;20055;-66
2022/09/19 07:15:44;;;;;;;6.35;1.40;;;14.10;80.10;;;;;;5123458;27;20047;-65
2022/09/19 07:18:12;;;;;;;10.10;2.13;;;14.10;80.00;;;;;;5114688;27;20062;-66
2022/09/19 07:20:40;;;;;;;9.48;2.10;;;14.10;80.60;;;;;;5111798;28;20028;-67
2022/09/19 07:23:19;;;;;;;8.95;1.88;;;14.10;79.90;;;;;;5130382;27;20469;-65
2022/09/19 07:26:05;;;;;;;8.65;1.77;;;14.10;79.80;;;;;;5112268;28;20035;-65
2022/09/19 07:28:33;;;;;;;6.45;2.00;;;14.20;79.90;;;;;;5113057;28;20118;-65
2022/09/19 07:31:01;;;;;;;8.45;1.75;;;14.30;79.90;;;;;;5095488;28;20059;-65
2022/09/19 07:33:29;;;;;;;8.00;2.03;;;14.40;79.70;;;;;;5100848;28;20023;-65
2022/09/19 07:35:56;;;;;;;7.68;1.65;;;14.40;79.50;;;;;;5129979;27;20440;-65
2022/09/19 07:38:23;;;;;;;8.35;1.60;;;14.50;79.30;;;;;;5112304;28;20063;-65
2022/09/19 07:41:17;;;;;;;6.80;2.00;;;14.60;79.20;;;;;;5142368;27;20026;-65
2022/09/19 07:44:00;;;;;;;6.47;1.73;;;14.80;78.90;;;;;;5124077;28;20024;-65
2022/09/19 07:49:46;;;;;;;;;;;15.10;78.30;;;;;;5070645;28;20432;-65
2022/09/19 07:52:48;;;;;;;7.13;1.83;;;15.20;78.10;;;;;;5061592;28;20077;-64
2022/09/19 07:55:18;;;;;;;8.77;2.10;;;15.20;78.00;;;;;;5054052;28;20380;-65
2022/09/19 07:57:50;;;;;;;10.52;1.65;;;15.20;78.00;;;;;;5071179;28;20120;-65
2022/09/19 08:00:16;;;;;;;6.75;1.55;;;15.40;77.90;;;;;;5070242;28;20111;-65
2022/09/19 08:03:02;;;;;;;9.55;1.70;;;15.40;77.60;;;;;;5071167;28;20047;-65
2022/09/19 08:05:34;;;;;;;7.68;1.85;;;15.40;77.50;;;;;;5055636;28;20031;-65
2022/09/19 08:08:01;;;;;;;8.82;1.80;;;15.40;77.50;;;;;;5073203;28;20736;-65
2022/09/19 08:10:28;;;;;;;8.73;1.95;;;15.70;77.10;;;;;;5072836;28;20037;-65
2022/09/19 08:13:07;;;;;;;6.22;1.42;;;16.00;76.60;;;;;;5073444;28;20440;-65
2022/09/19 08:15:34;;;;;;;9.73;1.95;;;16.30;75.90;;;;;;5066828;28;20036;-65
2022/09/19 08:18:02;;;;;;;7.45;1.50;;;16.60;75.30;;;;;;5070863;28;20361;-65
2022/09/19 08:20:31;;;;;;;7.22;1.75;;;16.80;74.60;;;;;;5075530;28;20094;-66
2022/09/19 08:22:59;;;;;;;8.65;1.95;;;17.10;74.10;;;;;;5088145;27;20063;-65
2022/09/19 08:25:26;;;;;;;7.43;1.83;;;17.30;73.70;;;;;;5119454;27;20123;-65
2022/09/19 08:27:55;;;;;;;6.60;1.80;;;17.50;73.20;;;;;;5116016;28;20028;-65
2022/09/19 08:30:22;;;;;;;7.40;2.10;;;17.70;72.60;;;;;;5118098;28;20047;-66
2022/09/19 08:32:49;;;;;;;8.13;1.55;;;18.00;72.20;;;;;;5116993;28;20023;-65
2022/09/19 08:35:18;;;;;;;10.43;1.70;;;18.10;71.60;;;;;;5116738;28;20058;-65
2022/09/19 08:37:44;;;;;;;6.80;1.67;;;18.20;70.90;;;;;;5117290;28;20024;-65
2022/09/19 08:40:19;;;;;;;9.32;1.83;;;18.20;70.80;;;;;;5132219;27;20030;-65
2022/09/19 08:43:08;;;;;;;9.15;1.95;;;18.40;70.50;;;;;;5101108;28;20020;-65
2022/09/19 08:46:12;;;;;;;7.60;1.70;;;18.50;70.20;;;;;;5134338;27;20046;-65
2022/09/19 08:48:55;;;;;;;6.13;1.50;;;18.70;69.30;;;;;;5118342;28;20028;-65
2022/09/19 08:51:49;;;;;;;7.60;1.48;;;18.70;68.60;;;;;;5133792;27;20084;-65
2022/09/19 08:54:49;;;;;;;5.95;1.20;;;18.80;68.40;;;;;;5116709;28;20031;-65
2022/09/19 08:57:29;;;;;;;9.88;1.40;;;19.00;68.10;;;;;;5096579;28;20108;-65
2022/09/19 09:00:16;;;;;;;5.03;1.48;;;19.10;67.90;;;;;;5133702;27;20355;-65
2022/09/19 09:02:47;;;;;;;8.65;1.45;;;19.10;67.50;;;;;;5133461;27;20023;-65
2022/09/19 09:05:44;;;;;;;7.30;1.50;;;19.00;67.80;;;;;;5133533;27;20034;-65
2022/09/19 09:08:37;;;;;;;6.28;1.45;;;18.70;68.20;;;;;;5116722;28;20031;-65
2022/09/19 09:11:57;;;;;;;7.32;1.60;;;18.60;68.40;;;;;;5105607;28;20058;-65
2022/09/19 09:14:49;;;;;;;7.53;1.77;;;18.90;68.10;;;;;;5133496;27;20039;-65
2022/09/19 09:17:21;;;;;;;6.57;2.10;;;19.10;67.30;;;;;;5131808;27;20396;-65
2022/09/19 09:20:05;;;;;;;8.85;1.50;;;19.20;66.80;;;;;;5115884;28;20047;-65
2022/09/19 09:22:43;;;;;;;11.07;1.70;;;19.30;66.50;;;;;;5126343;27;20448;-66
2022/09/19 09:25:30;;;;;;;7.00;1.48;;;19.20;66.20;;;;;;5132405;27;20036;-66
2022/09/19 09:28:06;;;;;;;5.07;1.10;;;18.80;67.10;;;;;;5132147;27;20040;-66
2022/09/19 09:30:48;;;;;;;5.10;1.20;;;18.40;68.20;;;;;;5133363;27;20015;-66
2022/09/19 09:33:24;;;;;;;7.82;1.50;;;18.00;69.20;;;;;;5133178;27;20031;-65
2022/09/19 09:36:04;;;;;;;7.90;1.35;;;17.60;70.00;;;;;;5133060;27;20076;-65
2022/09/19 09:38:40;;;;;;;5.93;1.13;;;17.40;70.70;;;;;;5124972;27;20308;-65
2022/09/19 09:41:45;;;;;;;3.25;0.90;;;17.10;71.20;;;;;;5120379;27;20069;-64
2022/09/19 09:44:13;;;;;;;2.35;0.80;;;17.10;71.50;;;;;;5115719;28;20039;-65
2022/09/19 09:46:49;;;;;;;4.35;1.00;;;17.00;71.30;;;;;;5132947;27;20304;-64
2022/09/19 09:49:21;;;;;;;3.63;0.75;;;17.10;71.00;;;;;;5115613;28;20117;-65
2022/09/19 09:52:25;;;;;;;6.10;1.07;;;17.20;70.60;;;;;;5132747;27;20440;-65
2022/09/19 09:58:31;;;;;;;4.68;1.00;;;17.20;70.70;;;;;;5115774;28;20504;-64
2022/09/19 10:04:26;;;;;;;2.50;0.95;;;17.00;71.30;;;;;;5126311;27;20024;-65
2022/09/19 10:07:14;;;;;;;7.03;1.38;;;16.90;71.60;;;;;;5122198;27;20088;-64
2022/09/19 10:09:57;;;;;;;3.33;1.00;;;16.80;71.90;;;;;;5131895;27;20027;-64
2022/09/19 10:12:34;;;;;;;3.85;0.82;;;16.80;71.80;;;;;;5113051;27;20031;-65
2022/09/19 10:15:05;;;;;;;3.25;0.80;;;16.70;71.80;;;;;;5114790;28;20110;-64
2022/09/19 10:17:46;;;;;;;3.35;1.10;;;16.80;71.80;;;;;;5115555;27;20027;-66
2022/09/19 10:20:29;;;;;;;3.47;0.73;;;16.80;71.80;;;;;;5123478;27;20084;-65
2022/09/19 10:22:55;;;;;;;4.38;0.90;;;17.10;71.30;;;;;;5115817;27;20048;-64
2022/09/19 10:25:26;;;;;;;2.85;0.70;;;17.30;70.70;;;;;;5131025;27;20024;-64
2022/09/19 10:27:53;;;;;;;2.88;1.00;;;17.50;70.30;;;;;;5130239;27;20405;-63
2022/09/19 10:30:33;;;;;;;3.45;0.77;;;17.70;69.70;;;;;;5114297;28;20027;-64
2022/09/19 10:33:39;;;;;;;3.45;1.20;;;18.00;69.20;;;;;;5132417;27;20023;-64
2022/09/19 10:36:17;;;;;;;4.72;1.42;;;18.30;68.10;;;;;;5107348;27;20043;-64
2022/09/19 10:38:59;;;;;;;4.40;1.23;;;18.50;67.50;;;;;;5101359;28;20035;-63
2022/09/19 10:41:32;;;;;;;3.55;0.82;;;18.60;66.50;;;;;;5130224;27;20111;-64
2022/09/19 10:44:00;;;;;;;1.92;0.80;;;18.40;66.00;;;;;;5114808;28;20463;-63
2022/09/19 10:46:41;;;;;;;1.98;0.68;;;18.20;66.10;;;;;;5113157;28;20039;-64
2022/09/19 10:49:47;;;;;;;2.78;0.70;;;18.10;65.90;;;;;;5116801;27;20034;-63
2022/09/19 10:52:33;;;;;;;4.43;0.80;;;18.00;66.20;;;;;;5130297;27;20456;-64
2022/09/19 10:55:09;;;;;;;3.92;0.70;;;17.90;66.20;;;;;;5129893;27;20024;-64
2022/09/19 10:57:41;;;;;;;3.88;0.73;;;17.80;66.60;;;;;;5114445;28;20118;-63
2022/09/19 11:00:32;;;;;;;4.10;0.75;;;17.70;66.80;;;;;;5124937;27;20039;-65
2022/09/19 11:03:23;;;;;;;3.90;0.90;;;17.60;67.10;;;;;;5104970;28;20035;-65
2022/09/19 11:06:01;;;;;;;5.53;1.13;;;17.50;67.50;;;;;;5130161;27;20019;-65
2022/09/19 11:08:28;;;;;;;3.38;1.17;;;17.30;67.60;;;;;;5130686;27;20027;-66
2022/09/19 11:10:59;;;;;;;4.80;1.15;;;17.40;68.00;;;;;;5113134;28;20028;-66
2022/09/19 11:13:31;;;;;;;4.22;1.13;;;17.30;68.60;;;;;;5113896;28;20059;-66
2022/09/19 11:16:27;;;;;;;3.05;0.85;;;17.30;67.90;;;;;;5113509;28;20059;-66
2022/09/19 11:19:06;;;;;;;4.53;1.05;;;17.40;67.40;;;;;;5131588;27;20107;-66
2022/09/19 11:21:49;;;;;;;5.13;1.30;;;17.60;67.10;;;;;;5114382;28;20139;-65
2022/09/19 11:24:26;;;;;;;2.13;0.70;;;17.70;66.40;;;;;;5131364;27;20059;-65
2022/09/19 11:27:21;;;;;;;2.05;0.88;;;17.80;65.90;;;;;;5116867;27;20031;-65
2022/09/19 11:30:11;;;;;;;2.63;0.70;;;18.10;65.20;;;;;;5113837;28;20113;-65
2022/09/19 11:32:57;;;;;;;3.53;0.80;;;18.20;64.30;;;;;;5123519;27;20035;-66
2022/09/19 11:35:48;;;;;;;1.58;0.63;;;18.20;63.90;;;;;;5118389;27;20023;-65
2022/09/19 11:38:37;;;;;;;4.63;1.20;;;18.30;63.70;;;;;;5131034;27;20028;-65
2022/09/19 11:41:42;;;;;;;2.75;0.80;;;18.40;63.20;;;;;;5130100;27;20024;-65
2022/09/19 11:44:33;;;;;;;3.72;0.93;;;18.60;62.80;;;;;;5113638;28;20030;-65
2022/09/19 11:47:33;;;;;;;3.30;0.80;;;18.80;62.30;;;;;;5132268;27;20032;-65
2022/09/19 11:50:17;;;;;;;5.63;0.85;;;18.70;61.80;;;;;;5130152;27;20043;-65
2022/09/19 11:52:55;;;;;;;4.15;0.90;;;18.60;61.70;;;;;;5113446;28;20031;-65
2022/09/19 11:55:43;;;;;;;2.85;0.93;;;18.40;62.20;;;;;;5112655;28;20043;-66
2022/09/19 11:58:35;;;;;;;2.08;0.80;;;18.50;61.90;;;;;;5124754;27;20024;-66
2022/09/19 12:01:38;;;;;;;5.40;1.13;;;18.60;61.40;;;;;;5128278;27;20413;-66
2022/09/19 12:04:23;;;;;;;3.22;0.85;;;18.80;61.00;;;;;;5127475;28;20028;-66
2022/09/19 12:07:25;;;;;;;3.45;1.10;;;18.90;60.30;;;;;;5114058;28;20059;-65
2022/09/19 12:10:03;;;;;;;4.35;0.93;;;19.00;59.40;;;;;;5128642;28;20035;-65
2022/09/19 12:12:31;;;;;;;2.70;0.90;;;19.10;59.20;;;;;;5115838;28;20077;-66
2022/09/19 12:15:35;;;;;;;5.28;1.02;;;19.10;58.70;;;;;;5112860;28;20042;-65
2022/09/19 12:18:04;;;;;;;2.53;0.82;;;19.10;58.40;;;;;;5113013;28;20072;-65
2022/09/19 12:20:42;;;;;;;2.88;0.65;;;19.20;58.10;;;;;;5097702;28;20031;-65
2022/09/19 12:26:21;;;;;;;3.70;0.85;;;19.10;58.00;;;;;;5113698;28;20112;-65
2022/09/19 12:28:58;;;;;;;4.10;0.98;;;18.90;58.20;;;;;;5097486;28;20024;-65
2022/09/19 12:31:29;;;;;;;4.28;0.95;;;18.70;58.30;;;;;;5095882;28;20096;-65
2022/09/19 12:34:07;;;;;;;4.35;1.00;;;18.40;59.20;;;;;;5113912;28;20030;-65
2022/09/19 12:36:38;;;;;;;4.30;1.05;;;18.30;58.90;;;;;;5131619;28;20046;-65
2022/09/19 12:39:15;;;;;;;3.58;1.10;;;18.10;59.30;;;;;;5123128;28;20134;-65
2022/09/19 12:42:25;;;;;;;6.63;1.10;;;18.00;59.50;;;;;;5112760;28;20509;-65
2022/09/19 12:45:09;;;;;;;2.72;0.98;;;18.00;59.40;;;;;;5051949;28;20036;-65
2022/09/19 12:47:55;;;;;;;4.13;1.02;;;18.00;59.40;;;;;;5035505;28;20040;-65
2022/09/19 12:50:38;;;;;;;2.72;0.90;;;18.10;59.40;;;;;;5025984;28;20120;-65
2022/09/19 12:53:26;;;;;;;3.63;0.90;;;18.20;59.40;;;;;;5038256;28;20033;-65
2022/09/19 12:56:02;;;;;;;3.28;1.08;;;18.30;59.20;;;;;;5055044;28;20115;-65
2022/09/19 12:59:00;;;;;;;3.47;1.00;;;18.30;59.00;;;;;;5055514;28;20025;-65
2022/09/19 13:01:31;;;;;;;6.38;0.90;;;18.30;58.30;;;;;;5038988;28;20041;-65
2022/09/19 13:04:22;;;;;;;3.70;0.90;;;18.20;58.20;;;;;;5055791;28;20072;-65
2022/09/19 13:06:50;;;;;;;3.70;1.05;;;18.10;57.80;;;;;;5044000;28;20059;-65
2022/09/19 13:09:27;;;;;;;3.75;0.93;;;18.00;58.00;;;;;;5054940;28;20432;-65
2022/09/19 13:11:59;;;;;;;3.72;0.80;;;17.90;58.20;;;;;;5054751;28;20053;-65
2022/09/19 13:14:33;;;;;;;6.28;0.98;;;17.80;58.40;;;;;;5038931;28;20065;-65
2022/09/19 13:25:35;;;;;;;2.75;0.90;;;17.50;58.40;;;;;;5124140;27;20031;-65
2022/09/19 13:28:44;;;;;;;3.55;1.05;;;17.50;58.60;;;;;;5119835;27;20050;-65
2022/09/19 13:31:12;;;;;;;3.15;0.90;;;17.50;58.70;;;;;;5091823;27;20113;-65
2022/09/19 13:33:49;;;;;;;3.20;0.93;;;17.50;58.70;;;;;;5116317;27;20447;-65
2022/09/19 13:36:36;;;;;;;3.90;0.90;;;17.50;58.40;;;;;;5116037;28;20126;-65
2022/09/19 13:39:04;;;;;;;2.88;0.90;;;17.50;58.40;;;;;;5116907;28;20058;-65
2022/09/19 13:41:35;;;;;;;2.78;0.75;;;17.60;58.50;;;;;;5122996;27;20027;-64
2022/09/19 13:44:10;;;;;;;;;;;17.60;58.50;;;;;;5117875;27;20023;-65
2022/09/19 13:46:55;;;;;;;3.83;1.05;;;17.60;58.50;;;;;;5116830;28;19911;-65
2022/09/19 13:49:31;;;;;;;5.90;1.15;;;17.50;58.50;;;;;;5105409;28;20059;-65
2022/09/19 13:52:07;;;;;;;4.43;0.90;;;17.50;58.50;;;;;;5112300;27;20035;-65
2022/09/19 13:54:56;;;;;;;4.97;1.17;;;17.50;58.60;;;;;;5107024;28;20043;-65
2022/09/19 13:57:29;;;;;;;6.25;1.45;;;17.50;58.60;;;;;;5110407;27;20032;-65